<?xml version="1.0" encoding="UTF-8" standalone="no" ?>
<gpx xmlns="http://www.topografix.com/GPX/1/1" xmlns:xsi="http://www.w3.org/2001/XMLSchema-instance" xsi:schemaLocation="http://www.topografix.com/GPX/1/1 http://www.topografix.com/GPX/1/1/gpx.xsd" version="1.1" creator="VisuGPX - https://www.visugpx.com">
  <metadata>
    <name>20140105</name>
    <desc><![CDATA[domarin flosaille venerieu domarin]]></desc>
  </metadata>
  <trk>
    <name><![CDATA[ACTIVE LOG143034]]></name>
    <trkseg>
      <trkpt lat="45.58655" lon="5.24671">
        <ele>254.986</ele>
        <time>2014-01-05T13:30:34Z</time>
      </trkpt>
      <trkpt lat="45.58663" lon="5.24696">
        <ele>254.979</ele>
        <time>2014-01-05T13:31:01Z</time>
      </trkpt>
      <trkpt lat="45.58679" lon="5.247">
        <ele>255.099</ele>
        <time>2014-01-05T13:31:13Z</time>
      </trkpt>
      <trkpt lat="45.5868" lon="5.24698">
        <ele>255.469</ele>
        <time>2014-01-05T13:32:28Z</time>
      </trkpt>
      <trkpt lat="45.58682" lon="5.24682">
        <ele>255.598</ele>
        <time>2014-01-05T13:32:44Z</time>
      </trkpt>
      <trkpt lat="45.58682" lon="5.24679">
        <ele>255.508</ele>
        <time>2014-01-05T13:32:59Z</time>
      </trkpt>
      <trkpt lat="45.58686" lon="5.24659">
        <ele>255.212</ele>
        <time>2014-01-05T13:33:06Z</time>
      </trkpt>
      <trkpt lat="45.587" lon="5.24583">
        <ele>251.942</ele>
        <time>2014-01-05T13:33:21Z</time>
      </trkpt>
      <trkpt lat="45.58702" lon="5.24579">
        <ele>251.805</ele>
        <time>2014-01-05T13:33:22Z</time>
      </trkpt>
      <trkpt lat="45.58718" lon="5.24579">
        <ele>249.609</ele>
        <time>2014-01-05T13:33:28Z</time>
      </trkpt>
      <trkpt lat="45.58742" lon="5.24592">
        <ele>247.871</ele>
        <time>2014-01-05T13:33:34Z</time>
      </trkpt>
      <trkpt lat="45.58805" lon="5.24632">
        <ele>244.227</ele>
        <time>2014-01-05T13:33:47Z</time>
      </trkpt>
      <trkpt lat="45.58809" lon="5.24634">
        <ele>243.972</ele>
        <time>2014-01-05T13:33:48Z</time>
      </trkpt>
      <trkpt lat="45.58836" lon="5.24644">
        <ele>242.094</ele>
        <time>2014-01-05T13:33:53Z</time>
      </trkpt>
      <trkpt lat="45.58867" lon="5.2465">
        <ele>240.176</ele>
        <time>2014-01-05T13:33:59Z</time>
      </trkpt>
      <trkpt lat="45.58883" lon="5.24658">
        <ele>239.711</ele>
        <time>2014-01-05T13:34:02Z</time>
      </trkpt>
      <trkpt lat="45.58921" lon="5.247">
        <ele>238.579</ele>
        <time>2014-01-05T13:34:11Z</time>
      </trkpt>
      <trkpt lat="45.5893" lon="5.247">
        <ele>238.533</ele>
        <time>2014-01-05T13:34:13Z</time>
      </trkpt>
      <trkpt lat="45.58948" lon="5.24706">
        <ele>237.696</ele>
        <time>2014-01-05T13:34:17Z</time>
      </trkpt>
      <trkpt lat="45.58987" lon="5.2473">
        <ele>234.123</ele>
        <time>2014-01-05T13:34:25Z</time>
      </trkpt>
      <trkpt lat="45.59009" lon="5.24744">
        <ele>232.041</ele>
        <time>2014-01-05T13:34:30Z</time>
      </trkpt>
      <trkpt lat="45.59043" lon="5.24749">
        <ele>231.551</ele>
        <time>2014-01-05T13:34:39Z</time>
      </trkpt>
      <trkpt lat="45.59045" lon="5.24744">
        <ele>231.546</ele>
        <time>2014-01-05T13:34:40Z</time>
      </trkpt>
      <trkpt lat="45.5907" lon="5.24655">
        <ele>230.777</ele>
        <time>2014-01-05T13:34:56Z</time>
      </trkpt>
      <trkpt lat="45.59104" lon="5.24603">
        <ele>229.168</ele>
        <time>2014-01-05T13:35:11Z</time>
      </trkpt>
      <trkpt lat="45.59151" lon="5.24627">
        <ele>227.657</ele>
        <time>2014-01-05T13:35:23Z</time>
      </trkpt>
      <trkpt lat="45.59227" lon="5.24681">
        <ele>224.572</ele>
        <time>2014-01-05T13:35:40Z</time>
      </trkpt>
      <trkpt lat="45.59276" lon="5.24716">
        <ele>224.124</ele>
        <time>2014-01-05T13:35:52Z</time>
      </trkpt>
      <trkpt lat="45.59302" lon="5.24764">
        <ele>225.069</ele>
        <time>2014-01-05T13:36:04Z</time>
      </trkpt>
      <trkpt lat="45.59331" lon="5.24787">
        <ele>224.81</ele>
        <time>2014-01-05T13:36:13Z</time>
      </trkpt>
      <trkpt lat="45.59351" lon="5.24773">
        <ele>225.134</ele>
        <time>2014-01-05T13:36:18Z</time>
      </trkpt>
      <trkpt lat="45.59357" lon="5.24763">
        <ele>225.014</ele>
        <time>2014-01-05T13:36:20Z</time>
      </trkpt>
      <trkpt lat="45.59379" lon="5.24751">
        <ele>224.71</ele>
        <time>2014-01-05T13:36:25Z</time>
      </trkpt>
      <trkpt lat="45.59407" lon="5.24748">
        <ele>224.692</ele>
        <time>2014-01-05T13:36:31Z</time>
      </trkpt>
      <trkpt lat="45.59472" lon="5.24762">
        <ele>224.731</ele>
        <time>2014-01-05T13:36:46Z</time>
      </trkpt>
      <trkpt lat="45.59518" lon="5.24791">
        <ele>224.974</ele>
        <time>2014-01-05T13:36:58Z</time>
      </trkpt>
      <trkpt lat="45.59578" lon="5.24845">
        <ele>225.075</ele>
        <time>2014-01-05T13:37:16Z</time>
      </trkpt>
      <trkpt lat="45.59631" lon="5.24886">
        <ele>224.66</ele>
        <time>2014-01-05T13:37:31Z</time>
      </trkpt>
      <trkpt lat="45.59707" lon="5.24937">
        <ele>224.712</ele>
        <time>2014-01-05T13:37:52Z</time>
      </trkpt>
      <trkpt lat="45.59777" lon="5.24967">
        <ele>224.741</ele>
        <time>2014-01-05T13:38:10Z</time>
      </trkpt>
      <trkpt lat="45.59851" lon="5.24987">
        <ele>225.132</ele>
        <time>2014-01-05T13:38:29Z</time>
      </trkpt>
      <trkpt lat="45.59898" lon="5.25">
        <ele>225.225</ele>
        <time>2014-01-05T13:38:41Z</time>
      </trkpt>
      <trkpt lat="45.59956" lon="5.24993">
        <ele>225.184</ele>
        <time>2014-01-05T13:38:56Z</time>
      </trkpt>
      <trkpt lat="45.59971" lon="5.24996">
        <ele>224.586</ele>
        <time>2014-01-05T13:39:00Z</time>
      </trkpt>
      <trkpt lat="45.60007" lon="5.25024">
        <ele>225.344</ele>
        <time>2014-01-05T13:39:11Z</time>
      </trkpt>
      <trkpt lat="45.60039" lon="5.24997">
        <ele>225.553</ele>
        <time>2014-01-05T13:39:23Z</time>
      </trkpt>
      <trkpt lat="45.60096" lon="5.24998">
        <ele>224.097</ele>
        <time>2014-01-05T13:39:36Z</time>
      </trkpt>
      <trkpt lat="45.60176" lon="5.25009">
        <ele>224.323</ele>
        <time>2014-01-05T13:39:54Z</time>
      </trkpt>
      <trkpt lat="45.60259" lon="5.25029">
        <ele>225.571</ele>
        <time>2014-01-05T13:40:14Z</time>
      </trkpt>
      <trkpt lat="45.60337" lon="5.25059">
        <ele>228.054</ele>
        <time>2014-01-05T13:40:34Z</time>
      </trkpt>
      <trkpt lat="45.60407" lon="5.25086">
        <ele>229.169</ele>
        <time>2014-01-05T13:40:53Z</time>
      </trkpt>
      <trkpt lat="45.60481" lon="5.25116">
        <ele>229.561</ele>
        <time>2014-01-05T13:41:12Z</time>
      </trkpt>
      <trkpt lat="45.60557" lon="5.25148">
        <ele>228.016</ele>
        <time>2014-01-05T13:41:32Z</time>
      </trkpt>
      <trkpt lat="45.60613" lon="5.2519">
        <ele>224.946</ele>
        <time>2014-01-05T13:41:45Z</time>
      </trkpt>
      <trkpt lat="45.60675" lon="5.25241">
        <ele>221.934</ele>
        <time>2014-01-05T13:41:59Z</time>
      </trkpt>
      <trkpt lat="45.60712" lon="5.25277">
        <ele>221.916</ele>
        <time>2014-01-05T13:42:08Z</time>
      </trkpt>
      <trkpt lat="45.60721" lon="5.25304">
        <ele>222.324</ele>
        <time>2014-01-05T13:42:13Z</time>
      </trkpt>
      <trkpt lat="45.60744" lon="5.25344">
        <ele>222.73</ele>
        <time>2014-01-05T13:42:23Z</time>
      </trkpt>
      <trkpt lat="45.60765" lon="5.25342">
        <ele>222.458</ele>
        <time>2014-01-05T13:42:28Z</time>
      </trkpt>
      <trkpt lat="45.6079" lon="5.25347">
        <ele>221.418</ele>
        <time>2014-01-05T13:42:33Z</time>
      </trkpt>
      <trkpt lat="45.60853" lon="5.25403">
        <ele>221.741</ele>
        <time>2014-01-05T13:42:49Z</time>
      </trkpt>
      <trkpt lat="45.60917" lon="5.25476">
        <ele>222.638</ele>
        <time>2014-01-05T13:43:07Z</time>
      </trkpt>
      <trkpt lat="45.60969" lon="5.25552">
        <ele>222.615</ele>
        <time>2014-01-05T13:43:25Z</time>
      </trkpt>
      <trkpt lat="45.61011" lon="5.25635">
        <ele>222.225</ele>
        <time>2014-01-05T13:43:43Z</time>
      </trkpt>
      <trkpt lat="45.61065" lon="5.2574">
        <ele>222.1</ele>
        <time>2014-01-05T13:44:02Z</time>
      </trkpt>
      <trkpt lat="45.61099" lon="5.2581">
        <ele>222.507</ele>
        <time>2014-01-05T13:44:16Z</time>
      </trkpt>
      <trkpt lat="45.6114" lon="5.25891">
        <ele>222.406</ele>
        <time>2014-01-05T13:44:32Z</time>
      </trkpt>
      <trkpt lat="45.61185" lon="5.25981">
        <ele>222.178</ele>
        <time>2014-01-05T13:44:49Z</time>
      </trkpt>
      <trkpt lat="45.61201" lon="5.26014">
        <ele>222.694</ele>
        <time>2014-01-05T13:45:00Z</time>
      </trkpt>
      <trkpt lat="45.61205" lon="5.26023">
        <ele>222.127</ele>
        <time>2014-01-05T13:46:59Z</time>
      </trkpt>
      <trkpt lat="45.61228" lon="5.26071">
        <ele>221.228</ele>
        <time>2014-01-05T13:47:13Z</time>
      </trkpt>
      <trkpt lat="45.61279" lon="5.2617">
        <ele>220.969</ele>
        <time>2014-01-05T13:47:32Z</time>
      </trkpt>
      <trkpt lat="45.61324" lon="5.26257">
        <ele>221.251</ele>
        <time>2014-01-05T13:47:50Z</time>
      </trkpt>
      <trkpt lat="45.61371" lon="5.2635">
        <ele>220.632</ele>
        <time>2014-01-05T13:48:09Z</time>
      </trkpt>
      <trkpt lat="45.61413" lon="5.26437">
        <ele>220.169</ele>
        <time>2014-01-05T13:48:27Z</time>
      </trkpt>
      <trkpt lat="45.6145" lon="5.26514">
        <ele>220.149</ele>
        <time>2014-01-05T13:48:43Z</time>
      </trkpt>
      <trkpt lat="45.61499" lon="5.26611">
        <ele>220.187</ele>
        <time>2014-01-05T13:49:03Z</time>
      </trkpt>
      <trkpt lat="45.61539" lon="5.26694">
        <ele>219.163</ele>
        <time>2014-01-05T13:49:19Z</time>
      </trkpt>
      <trkpt lat="45.61575" lon="5.2678">
        <ele>219.19</ele>
        <time>2014-01-05T13:49:34Z</time>
      </trkpt>
      <trkpt lat="45.61624" lon="5.26863">
        <ele>218.514</ele>
        <time>2014-01-05T13:49:50Z</time>
      </trkpt>
      <trkpt lat="45.61628" lon="5.26875">
        <ele>218.344</ele>
        <time>2014-01-05T13:49:52Z</time>
      </trkpt>
      <trkpt lat="45.61634" lon="5.26894">
        <ele>218.385</ele>
        <time>2014-01-05T13:49:55Z</time>
      </trkpt>
      <trkpt lat="45.61636" lon="5.26947">
        <ele>218.792</ele>
        <time>2014-01-05T13:50:04Z</time>
      </trkpt>
      <trkpt lat="45.61665" lon="5.26976">
        <ele>219.003</ele>
        <time>2014-01-05T13:50:14Z</time>
      </trkpt>
      <trkpt lat="45.61694" lon="5.2694">
        <ele>219.03</ele>
        <time>2014-01-05T13:50:24Z</time>
      </trkpt>
      <trkpt lat="45.61696" lon="5.2692">
        <ele>218.949</ele>
        <time>2014-01-05T13:50:27Z</time>
      </trkpt>
      <trkpt lat="45.61704" lon="5.26893">
        <ele>218.315</ele>
        <time>2014-01-05T13:50:31Z</time>
      </trkpt>
      <trkpt lat="45.61779" lon="5.26795">
        <ele>216.115</ele>
        <time>2014-01-05T13:50:51Z</time>
      </trkpt>
      <trkpt lat="45.61834" lon="5.2673">
        <ele>216.304</ele>
        <time>2014-01-05T13:51:07Z</time>
      </trkpt>
      <trkpt lat="45.61899" lon="5.26658">
        <ele>216.249</ele>
        <time>2014-01-05T13:51:25Z</time>
      </trkpt>
      <trkpt lat="45.61974" lon="5.26574">
        <ele>215.889</ele>
        <time>2014-01-05T13:51:46Z</time>
      </trkpt>
      <trkpt lat="45.62022" lon="5.2652">
        <ele>215.673</ele>
        <time>2014-01-05T13:52:02Z</time>
      </trkpt>
      <trkpt lat="45.62036" lon="5.26504">
        <ele>215.704</ele>
        <time>2014-01-05T13:52:06Z</time>
      </trkpt>
      <trkpt lat="45.62079" lon="5.26455">
        <ele>215.506</ele>
        <time>2014-01-05T13:52:20Z</time>
      </trkpt>
      <trkpt lat="45.62142" lon="5.26384">
        <ele>215.043</ele>
        <time>2014-01-05T13:52:38Z</time>
      </trkpt>
      <trkpt lat="45.62203" lon="5.26317">
        <ele>215.095</ele>
        <time>2014-01-05T13:52:56Z</time>
      </trkpt>
      <trkpt lat="45.62266" lon="5.26246">
        <ele>214.696</ele>
        <time>2014-01-05T13:53:15Z</time>
      </trkpt>
      <trkpt lat="45.62328" lon="5.26177">
        <ele>214.32</ele>
        <time>2014-01-05T13:53:32Z</time>
      </trkpt>
      <trkpt lat="45.62341" lon="5.26161">
        <ele>214.245</ele>
        <time>2014-01-05T13:53:36Z</time>
      </trkpt>
      <trkpt lat="45.62394" lon="5.26105">
        <ele>214.201</ele>
        <time>2014-01-05T13:53:52Z</time>
      </trkpt>
      <trkpt lat="45.62447" lon="5.26042">
        <ele>213.911</ele>
        <time>2014-01-05T13:54:09Z</time>
      </trkpt>
      <trkpt lat="45.62512" lon="5.25969">
        <ele>213.91</ele>
        <time>2014-01-05T13:54:28Z</time>
      </trkpt>
      <trkpt lat="45.62576" lon="5.25899">
        <ele>213.808</ele>
        <time>2014-01-05T13:54:47Z</time>
      </trkpt>
      <trkpt lat="45.62617" lon="5.25853">
        <ele>213.295</ele>
        <time>2014-01-05T13:55:02Z</time>
      </trkpt>
      <trkpt lat="45.62639" lon="5.2583">
        <ele>213.294</ele>
        <time>2014-01-05T13:55:09Z</time>
      </trkpt>
      <trkpt lat="45.62676" lon="5.25788">
        <ele>213.365</ele>
        <time>2014-01-05T13:55:20Z</time>
      </trkpt>
      <trkpt lat="45.62725" lon="5.25736">
        <ele>213.551</ele>
        <time>2014-01-05T13:55:36Z</time>
      </trkpt>
      <trkpt lat="45.62784" lon="5.25677">
        <ele>213.397</ele>
        <time>2014-01-05T13:55:55Z</time>
      </trkpt>
      <trkpt lat="45.62829" lon="5.25623">
        <ele>212.874</ele>
        <time>2014-01-05T13:56:10Z</time>
      </trkpt>
      <trkpt lat="45.62879" lon="5.25559">
        <ele>212.894</ele>
        <time>2014-01-05T13:56:26Z</time>
      </trkpt>
      <trkpt lat="45.62918" lon="5.25497">
        <ele>212.433</ele>
        <time>2014-01-05T13:56:39Z</time>
      </trkpt>
      <trkpt lat="45.62969" lon="5.25413">
        <ele>212.315</ele>
        <time>2014-01-05T13:56:57Z</time>
      </trkpt>
      <trkpt lat="45.62986" lon="5.25385">
        <ele>212.553</ele>
        <time>2014-01-05T13:57:03Z</time>
      </trkpt>
      <trkpt lat="45.63031" lon="5.25305">
        <ele>212.764</ele>
        <time>2014-01-05T13:57:23Z</time>
      </trkpt>
      <trkpt lat="45.6306" lon="5.25259">
        <ele>212.653</ele>
        <time>2014-01-05T13:57:37Z</time>
      </trkpt>
      <trkpt lat="45.63104" lon="5.25181">
        <ele>212.287</ele>
        <time>2014-01-05T13:57:56Z</time>
      </trkpt>
      <trkpt lat="45.6315" lon="5.25099">
        <ele>212.117</ele>
        <time>2014-01-05T13:58:16Z</time>
      </trkpt>
      <trkpt lat="45.63192" lon="5.25023">
        <ele>212.311</ele>
        <time>2014-01-05T13:58:33Z</time>
      </trkpt>
      <trkpt lat="45.63233" lon="5.24962">
        <ele>212.426</ele>
        <time>2014-01-05T13:58:49Z</time>
      </trkpt>
      <trkpt lat="45.63287" lon="5.24886">
        <ele>212.224</ele>
        <time>2014-01-05T13:59:07Z</time>
      </trkpt>
      <trkpt lat="45.63332" lon="5.24822">
        <ele>211.823</ele>
        <time>2014-01-05T13:59:21Z</time>
      </trkpt>
      <trkpt lat="45.63376" lon="5.24761">
        <ele>212.3</ele>
        <time>2014-01-05T13:59:36Z</time>
      </trkpt>
      <trkpt lat="45.63419" lon="5.24705">
        <ele>212.145</ele>
        <time>2014-01-05T13:59:51Z</time>
      </trkpt>
      <trkpt lat="45.63457" lon="5.24651">
        <ele>212.909</ele>
        <time>2014-01-05T14:00:06Z</time>
      </trkpt>
      <trkpt lat="45.63496" lon="5.24593">
        <ele>213.614</ele>
        <time>2014-01-05T14:00:21Z</time>
      </trkpt>
      <trkpt lat="45.635" lon="5.24583">
        <ele>213.822</ele>
        <time>2014-01-05T14:00:23Z</time>
      </trkpt>
      <trkpt lat="45.63507" lon="5.24555">
        <ele>213.856</ele>
        <time>2014-01-05T14:00:28Z</time>
      </trkpt>
      <trkpt lat="45.63516" lon="5.24442">
        <ele>213.5</ele>
        <time>2014-01-05T14:00:47Z</time>
      </trkpt>
      <trkpt lat="45.6353" lon="5.24316">
        <ele>213.845</ele>
        <time>2014-01-05T14:01:08Z</time>
      </trkpt>
      <trkpt lat="45.63549" lon="5.24262">
        <ele>214.169</ele>
        <time>2014-01-05T14:01:20Z</time>
      </trkpt>
      <trkpt lat="45.63581" lon="5.24185">
        <ele>214.208</ele>
        <time>2014-01-05T14:01:37Z</time>
      </trkpt>
      <trkpt lat="45.63599" lon="5.24114">
        <ele>213.487</ele>
        <time>2014-01-05T14:01:52Z</time>
      </trkpt>
      <trkpt lat="45.63595" lon="5.24025">
        <ele>212.314</ele>
        <time>2014-01-05T14:02:07Z</time>
      </trkpt>
      <trkpt lat="45.63594" lon="5.23984">
        <ele>212.088</ele>
        <time>2014-01-05T14:02:14Z</time>
      </trkpt>
      <trkpt lat="45.63605" lon="5.23947">
        <ele>212.376</ele>
        <time>2014-01-05T14:02:21Z</time>
      </trkpt>
      <trkpt lat="45.63579" lon="5.23917">
        <ele>212.027</ele>
        <time>2014-01-05T14:02:30Z</time>
      </trkpt>
      <trkpt lat="45.63569" lon="5.23921">
        <ele>211.813</ele>
        <time>2014-01-05T14:02:32Z</time>
      </trkpt>
      <trkpt lat="45.63536" lon="5.23916">
        <ele>211.621</ele>
        <time>2014-01-05T14:02:39Z</time>
      </trkpt>
      <trkpt lat="45.63496" lon="5.23889">
        <ele>211.761</ele>
        <time>2014-01-05T14:02:49Z</time>
      </trkpt>
      <trkpt lat="45.63428" lon="5.23882">
        <ele>211.637</ele>
        <time>2014-01-05T14:03:06Z</time>
      </trkpt>
      <trkpt lat="45.63352" lon="5.23878">
        <ele>211.154</ele>
        <time>2014-01-05T14:03:24Z</time>
      </trkpt>
      <trkpt lat="45.63268" lon="5.23873">
        <ele>211.278</ele>
        <time>2014-01-05T14:03:44Z</time>
      </trkpt>
      <trkpt lat="45.63201" lon="5.23861">
        <ele>211.969</ele>
        <time>2014-01-05T14:04:01Z</time>
      </trkpt>
      <trkpt lat="45.63145" lon="5.23844">
        <ele>212.172</ele>
        <time>2014-01-05T14:04:16Z</time>
      </trkpt>
      <trkpt lat="45.6307" lon="5.238">
        <ele>211.734</ele>
        <time>2014-01-05T14:04:34Z</time>
      </trkpt>
      <trkpt lat="45.63012" lon="5.23751">
        <ele>211.322</ele>
        <time>2014-01-05T14:04:49Z</time>
      </trkpt>
      <trkpt lat="45.62936" lon="5.23679">
        <ele>211.427</ele>
        <time>2014-01-05T14:05:11Z</time>
      </trkpt>
      <trkpt lat="45.62892" lon="5.23635">
        <ele>211.787</ele>
        <time>2014-01-05T14:05:25Z</time>
      </trkpt>
      <trkpt lat="45.62836" lon="5.23576">
        <ele>211.808</ele>
        <time>2014-01-05T14:05:43Z</time>
      </trkpt>
      <trkpt lat="45.6279" lon="5.23528">
        <ele>212.284</ele>
        <time>2014-01-05T14:06:00Z</time>
      </trkpt>
      <trkpt lat="45.62734" lon="5.2347">
        <ele>212.846</ele>
        <time>2014-01-05T14:06:17Z</time>
      </trkpt>
      <trkpt lat="45.62682" lon="5.23417">
        <ele>212.848</ele>
        <time>2014-01-05T14:06:34Z</time>
      </trkpt>
      <trkpt lat="45.62633" lon="5.23368">
        <ele>214.684</ele>
        <time>2014-01-05T14:06:51Z</time>
      </trkpt>
      <trkpt lat="45.62589" lon="5.23329">
        <ele>215.238</ele>
        <time>2014-01-05T14:07:06Z</time>
      </trkpt>
      <trkpt lat="45.62546" lon="5.23303">
        <ele>216.586</ele>
        <time>2014-01-05T14:07:22Z</time>
      </trkpt>
      <trkpt lat="45.62501" lon="5.23278">
        <ele>219.611</ele>
        <time>2014-01-05T14:07:38Z</time>
      </trkpt>
      <trkpt lat="45.62465" lon="5.23255">
        <ele>221.988</ele>
        <time>2014-01-05T14:07:52Z</time>
      </trkpt>
      <trkpt lat="45.62428" lon="5.23237">
        <ele>225.144</ele>
        <time>2014-01-05T14:08:06Z</time>
      </trkpt>
      <trkpt lat="45.62398" lon="5.23218">
        <ele>228.019</ele>
        <time>2014-01-05T14:08:20Z</time>
      </trkpt>
      <trkpt lat="45.62394" lon="5.23216">
        <ele>228.264</ele>
        <time>2014-01-05T14:08:22Z</time>
      </trkpt>
      <trkpt lat="45.6236" lon="5.23194">
        <ele>230.867</ele>
        <time>2014-01-05T14:08:38Z</time>
      </trkpt>
      <trkpt lat="45.6232" lon="5.23182">
        <ele>232.845</ele>
        <time>2014-01-05T14:08:53Z</time>
      </trkpt>
      <trkpt lat="45.62288" lon="5.232">
        <ele>233.829</ele>
        <time>2014-01-05T14:09:06Z</time>
      </trkpt>
      <trkpt lat="45.62269" lon="5.23166">
        <ele>234.838</ele>
        <time>2014-01-05T14:09:18Z</time>
      </trkpt>
      <trkpt lat="45.62229" lon="5.2316">
        <ele>233.313</ele>
        <time>2014-01-05T14:09:30Z</time>
      </trkpt>
      <trkpt lat="45.62218" lon="5.23155">
        <ele>232.011</ele>
        <time>2014-01-05T14:09:33Z</time>
      </trkpt>
      <trkpt lat="45.62166" lon="5.23124">
        <ele>230.274</ele>
        <time>2014-01-05T14:09:48Z</time>
      </trkpt>
      <trkpt lat="45.6211" lon="5.23083">
        <ele>229.638</ele>
        <time>2014-01-05T14:10:05Z</time>
      </trkpt>
      <trkpt lat="45.62056" lon="5.23025">
        <ele>229.462</ele>
        <time>2014-01-05T14:10:20Z</time>
      </trkpt>
      <trkpt lat="45.6205" lon="5.23017">
        <ele>229.524</ele>
        <time>2014-01-05T14:10:22Z</time>
      </trkpt>
      <trkpt lat="45.62011" lon="5.22959">
        <ele>229.824</ele>
        <time>2014-01-05T14:10:35Z</time>
      </trkpt>
      <trkpt lat="45.61967" lon="5.22938">
        <ele>230.765</ele>
        <time>2014-01-05T14:10:49Z</time>
      </trkpt>
      <trkpt lat="45.61909" lon="5.22927">
        <ele>233.316</ele>
        <time>2014-01-05T14:11:05Z</time>
      </trkpt>
      <trkpt lat="45.61831" lon="5.22911">
        <ele>230.512</ele>
        <time>2014-01-05T14:11:23Z</time>
      </trkpt>
      <trkpt lat="45.61755" lon="5.22905">
        <ele>229.582</ele>
        <time>2014-01-05T14:11:38Z</time>
      </trkpt>
      <trkpt lat="45.61691" lon="5.2288">
        <ele>230.043</ele>
        <time>2014-01-05T14:11:53Z</time>
      </trkpt>
      <trkpt lat="45.61675" lon="5.22866">
        <ele>229.68</ele>
        <time>2014-01-05T14:11:57Z</time>
      </trkpt>
      <trkpt lat="45.61659" lon="5.22842">
        <ele>229.175</ele>
        <time>2014-01-05T14:12:02Z</time>
      </trkpt>
      <trkpt lat="45.61616" lon="5.22741">
        <ele>225.48</ele>
        <time>2014-01-05T14:12:18Z</time>
      </trkpt>
      <trkpt lat="45.61613" lon="5.22734">
        <ele>225.316</ele>
        <time>2014-01-05T14:12:19Z</time>
      </trkpt>
      <trkpt lat="45.61576" lon="5.22626">
        <ele>222.812</ele>
        <time>2014-01-05T14:12:32Z</time>
      </trkpt>
      <trkpt lat="45.61557" lon="5.22571">
        <ele>222.703</ele>
        <time>2014-01-05T14:12:41Z</time>
      </trkpt>
      <trkpt lat="45.61539" lon="5.22559">
        <ele>222.214</ele>
        <time>2014-01-05T14:12:45Z</time>
      </trkpt>
      <trkpt lat="45.61478" lon="5.22469">
        <ele>221.662</ele>
        <time>2014-01-05T14:13:01Z</time>
      </trkpt>
      <trkpt lat="45.61419" lon="5.22356">
        <ele>221.05</ele>
        <time>2014-01-05T14:13:18Z</time>
      </trkpt>
      <trkpt lat="45.61368" lon="5.22245">
        <ele>219.464</ele>
        <time>2014-01-05T14:13:34Z</time>
      </trkpt>
      <trkpt lat="45.61348" lon="5.2221">
        <ele>219.562</ele>
        <time>2014-01-05T14:13:40Z</time>
      </trkpt>
      <trkpt lat="45.61344" lon="5.222">
        <ele>219.176</ele>
        <time>2014-01-05T14:13:42Z</time>
      </trkpt>
      <trkpt lat="45.6132" lon="5.22159">
        <ele>218.634</ele>
        <time>2014-01-05T14:13:53Z</time>
      </trkpt>
      <trkpt lat="45.61297" lon="5.22159">
        <ele>219.278</ele>
        <time>2014-01-05T14:14:01Z</time>
      </trkpt>
      <trkpt lat="45.61245" lon="5.22141">
        <ele>220.632</ele>
        <time>2014-01-05T14:14:15Z</time>
      </trkpt>
      <trkpt lat="45.61184" lon="5.22109">
        <ele>222.803</ele>
        <time>2014-01-05T14:14:31Z</time>
      </trkpt>
      <trkpt lat="45.61139" lon="5.22084">
        <ele>223.771</ele>
        <time>2014-01-05T14:14:44Z</time>
      </trkpt>
      <trkpt lat="45.61062" lon="5.22043">
        <ele>222.034</ele>
        <time>2014-01-05T14:15:02Z</time>
      </trkpt>
      <trkpt lat="45.61034" lon="5.22028">
        <ele>221.512</ele>
        <time>2014-01-05T14:15:08Z</time>
      </trkpt>
      <trkpt lat="45.61024" lon="5.2202">
        <ele>222.038</ele>
        <time>2014-01-05T14:15:11Z</time>
      </trkpt>
      <trkpt lat="45.61014" lon="5.2202">
        <ele>222.669</ele>
        <time>2014-01-05T14:15:17Z</time>
      </trkpt>
      <trkpt lat="45.60987" lon="5.22027">
        <ele>222.449</ele>
        <time>2014-01-05T14:15:29Z</time>
      </trkpt>
      <trkpt lat="45.60963" lon="5.22039">
        <ele>222.445</ele>
        <time>2014-01-05T14:15:35Z</time>
      </trkpt>
      <trkpt lat="45.60951" lon="5.22043">
        <ele>222.447</ele>
        <time>2014-01-05T14:15:38Z</time>
      </trkpt>
      <trkpt lat="45.60892" lon="5.2207">
        <ele>218.737</ele>
        <time>2014-01-05T14:15:51Z</time>
      </trkpt>
      <trkpt lat="45.60882" lon="5.22075">
        <ele>218.312</ele>
        <time>2014-01-05T14:15:53Z</time>
      </trkpt>
      <trkpt lat="45.60827" lon="5.22137">
        <ele>215.262</ele>
        <time>2014-01-05T14:16:06Z</time>
      </trkpt>
      <trkpt lat="45.60778" lon="5.2223">
        <ele>216.685</ele>
        <time>2014-01-05T14:16:22Z</time>
      </trkpt>
      <trkpt lat="45.60727" lon="5.2232">
        <ele>217.336</ele>
        <time>2014-01-05T14:16:40Z</time>
      </trkpt>
      <trkpt lat="45.60691" lon="5.22378">
        <ele>217.236</ele>
        <time>2014-01-05T14:16:55Z</time>
      </trkpt>
      <trkpt lat="45.60653" lon="5.2243">
        <ele>218.047</ele>
        <time>2014-01-05T14:17:09Z</time>
      </trkpt>
      <trkpt lat="45.60595" lon="5.22493">
        <ele>219.144</ele>
        <time>2014-01-05T14:17:27Z</time>
      </trkpt>
      <trkpt lat="45.60561" lon="5.22531">
        <ele>221.351</ele>
        <time>2014-01-05T14:17:42Z</time>
      </trkpt>
      <trkpt lat="45.60529" lon="5.22567">
        <ele>222.763</ele>
        <time>2014-01-05T14:17:56Z</time>
      </trkpt>
      <trkpt lat="45.60488" lon="5.22608">
        <ele>225.327</ele>
        <time>2014-01-05T14:18:11Z</time>
      </trkpt>
      <trkpt lat="45.60438" lon="5.22659">
        <ele>228.36</ele>
        <time>2014-01-05T14:18:29Z</time>
      </trkpt>
      <trkpt lat="45.60387" lon="5.22711">
        <ele>230.4</ele>
        <time>2014-01-05T14:18:46Z</time>
      </trkpt>
      <trkpt lat="45.60345" lon="5.22754">
        <ele>231.777</ele>
        <time>2014-01-05T14:19:01Z</time>
      </trkpt>
      <trkpt lat="45.60305" lon="5.22797">
        <ele>232.716</ele>
        <time>2014-01-05T14:19:15Z</time>
      </trkpt>
      <trkpt lat="45.60259" lon="5.22841">
        <ele>233.127</ele>
        <time>2014-01-05T14:19:31Z</time>
      </trkpt>
      <trkpt lat="45.60215" lon="5.22883">
        <ele>232.919</ele>
        <time>2014-01-05T14:19:46Z</time>
      </trkpt>
      <trkpt lat="45.60196" lon="5.22902">
        <ele>232.233</ele>
        <time>2014-01-05T14:19:52Z</time>
      </trkpt>
      <trkpt lat="45.60187" lon="5.22914">
        <ele>232.189</ele>
        <time>2014-01-05T14:19:55Z</time>
      </trkpt>
      <trkpt lat="45.60172" lon="5.22934">
        <ele>231.829</ele>
        <time>2014-01-05T14:20:00Z</time>
      </trkpt>
      <trkpt lat="45.60158" lon="5.22949">
        <ele>231.808</ele>
        <time>2014-01-05T14:20:04Z</time>
      </trkpt>
      <trkpt lat="45.60114" lon="5.23005">
        <ele>232.233</ele>
        <time>2014-01-05T14:20:19Z</time>
      </trkpt>
      <trkpt lat="45.60068" lon="5.23069">
        <ele>233.118</ele>
        <time>2014-01-05T14:20:37Z</time>
      </trkpt>
      <trkpt lat="45.60021" lon="5.23121">
        <ele>234.084</ele>
        <time>2014-01-05T14:20:54Z</time>
      </trkpt>
      <trkpt lat="45.59975" lon="5.23141">
        <ele>235.347</ele>
        <time>2014-01-05T14:21:10Z</time>
      </trkpt>
      <trkpt lat="45.59927" lon="5.23145">
        <ele>236.532</ele>
        <time>2014-01-05T14:21:22Z</time>
      </trkpt>
      <trkpt lat="45.59856" lon="5.23148">
        <ele>236.681</ele>
        <time>2014-01-05T14:21:40Z</time>
      </trkpt>
      <trkpt lat="45.59805" lon="5.23165">
        <ele>236.442</ele>
        <time>2014-01-05T14:21:54Z</time>
      </trkpt>
      <trkpt lat="45.59752" lon="5.23212">
        <ele>236.687</ele>
        <time>2014-01-05T14:22:11Z</time>
      </trkpt>
      <trkpt lat="45.59706" lon="5.23265">
        <ele>235.864</ele>
        <time>2014-01-05T14:22:27Z</time>
      </trkpt>
      <trkpt lat="45.59657" lon="5.23317">
        <ele>235.27</ele>
        <time>2014-01-05T14:22:40Z</time>
      </trkpt>
      <trkpt lat="45.59605" lon="5.23374">
        <ele>235.261</ele>
        <time>2014-01-05T14:22:56Z</time>
      </trkpt>
      <trkpt lat="45.59552" lon="5.23442">
        <ele>233.656</ele>
        <time>2014-01-05T14:23:13Z</time>
      </trkpt>
      <trkpt lat="45.59484" lon="5.23534">
        <ele>230.92</ele>
        <time>2014-01-05T14:23:32Z</time>
      </trkpt>
      <trkpt lat="45.59421" lon="5.23616">
        <ele>229.595</ele>
        <time>2014-01-05T14:23:49Z</time>
      </trkpt>
      <trkpt lat="45.59383" lon="5.23645">
        <ele>229.66</ele>
        <time>2014-01-05T14:24:02Z</time>
      </trkpt>
      <trkpt lat="45.59349" lon="5.23599">
        <ele>231.234</ele>
        <time>2014-01-05T14:24:18Z</time>
      </trkpt>
      <trkpt lat="45.5933" lon="5.23569">
        <ele>233.252</ele>
        <time>2014-01-05T14:24:30Z</time>
      </trkpt>
      <trkpt lat="45.59323" lon="5.23573">
        <ele>232.52</ele>
        <time>2014-01-05T14:24:34Z</time>
      </trkpt>
      <trkpt lat="45.59314" lon="5.23596">
        <ele>231.801</ele>
        <time>2014-01-05T14:24:39Z</time>
      </trkpt>
      <trkpt lat="45.59306" lon="5.2362">
        <ele>231.001</ele>
        <time>2014-01-05T14:24:43Z</time>
      </trkpt>
      <trkpt lat="45.59271" lon="5.2371">
        <ele>228.952</ele>
        <time>2014-01-05T14:24:58Z</time>
      </trkpt>
      <trkpt lat="45.59252" lon="5.23731">
        <ele>228.226</ele>
        <time>2014-01-05T14:25:04Z</time>
      </trkpt>
      <trkpt lat="45.59203" lon="5.23719">
        <ele>229.459</ele>
        <time>2014-01-05T14:25:17Z</time>
      </trkpt>
      <trkpt lat="45.5917" lon="5.23751">
        <ele>230.83</ele>
        <time>2014-01-05T14:25:28Z</time>
      </trkpt>
      <trkpt lat="45.59126" lon="5.23806">
        <ele>232.324</ele>
        <time>2014-01-05T14:25:43Z</time>
      </trkpt>
      <trkpt lat="45.59098" lon="5.23849">
        <ele>234.487</ele>
        <time>2014-01-05T14:25:58Z</time>
      </trkpt>
      <trkpt lat="45.59076" lon="5.23902">
        <ele>236.084</ele>
        <time>2014-01-05T14:26:14Z</time>
      </trkpt>
      <trkpt lat="45.5905" lon="5.23919">
        <ele>237.681</ele>
        <time>2014-01-05T14:26:27Z</time>
      </trkpt>
      <trkpt lat="45.59006" lon="5.23901">
        <ele>239.602</ele>
        <time>2014-01-05T14:26:44Z</time>
      </trkpt>
      <trkpt lat="45.58971" lon="5.23882">
        <ele>241.974</ele>
        <time>2014-01-05T14:26:58Z</time>
      </trkpt>
      <trkpt lat="45.5894" lon="5.23868">
        <ele>245.113</ele>
        <time>2014-01-05T14:27:10Z</time>
      </trkpt>
      <trkpt lat="45.58923" lon="5.2385">
        <ele>247.82</ele>
        <time>2014-01-05T14:27:21Z</time>
      </trkpt>
      <trkpt lat="45.58922" lon="5.23849">
        <ele>247.943</ele>
        <time>2014-01-05T14:27:22Z</time>
      </trkpt>
      <trkpt lat="45.58916" lon="5.23847">
        <ele>248.659</ele>
        <time>2014-01-05T14:27:26Z</time>
      </trkpt>
      <trkpt lat="45.58911" lon="5.23849">
        <ele>249.432</ele>
        <time>2014-01-05T14:27:30Z</time>
      </trkpt>
      <trkpt lat="45.58898" lon="5.23869">
        <ele>251.202</ele>
        <time>2014-01-05T14:27:42Z</time>
      </trkpt>
      <trkpt lat="45.58888" lon="5.23938">
        <ele>250.914</ele>
        <time>2014-01-05T14:27:57Z</time>
      </trkpt>
      <trkpt lat="45.58869" lon="5.24021">
        <ele>250.071</ele>
        <time>2014-01-05T14:28:13Z</time>
      </trkpt>
      <trkpt lat="45.58843" lon="5.24111">
        <ele>250.736</ele>
        <time>2014-01-05T14:28:31Z</time>
      </trkpt>
      <trkpt lat="45.58826" lon="5.24161">
        <ele>251.477</ele>
        <time>2014-01-05T14:28:45Z</time>
      </trkpt>
      <trkpt lat="45.58799" lon="5.2422">
        <ele>252.597</ele>
        <time>2014-01-05T14:29:00Z</time>
      </trkpt>
      <trkpt lat="45.5876" lon="5.24299">
        <ele>253.993</ele>
        <time>2014-01-05T14:29:18Z</time>
      </trkpt>
      <trkpt lat="45.58733" lon="5.24349">
        <ele>255.132</ele>
        <time>2014-01-05T14:29:32Z</time>
      </trkpt>
      <trkpt lat="45.58709" lon="5.24401">
        <ele>255.801</ele>
        <time>2014-01-05T14:29:47Z</time>
      </trkpt>
      <trkpt lat="45.58685" lon="5.24452">
        <ele>256.264</ele>
        <time>2014-01-05T14:30:02Z</time>
      </trkpt>
      <trkpt lat="45.58668" lon="5.24483">
        <ele>256.818</ele>
        <time>2014-01-05T14:30:14Z</time>
      </trkpt>
      <trkpt lat="45.58648" lon="5.24525">
        <ele>256.752</ele>
        <time>2014-01-05T14:30:28Z</time>
      </trkpt>
      <trkpt lat="45.58643" lon="5.24544">
        <ele>256.41</ele>
        <time>2014-01-05T14:30:34Z</time>
      </trkpt>
      <trkpt lat="45.58654" lon="5.24553">
        <ele>255.053</ele>
        <time>2014-01-05T14:30:38Z</time>
      </trkpt>
      <trkpt lat="45.58667" lon="5.24557">
        <ele>253.846</ele>
        <time>2014-01-05T14:30:41Z</time>
      </trkpt>
      <trkpt lat="45.58688" lon="5.24564">
        <ele>252.209</ele>
        <time>2014-01-05T14:30:46Z</time>
      </trkpt>
      <trkpt lat="45.58699" lon="5.24594">
        <ele>252.214</ele>
        <time>2014-01-05T14:30:54Z</time>
      </trkpt>
      <trkpt lat="45.58698" lon="5.24597">
        <ele>252.554</ele>
        <time>2014-01-05T14:30:55Z</time>
      </trkpt>
      <trkpt lat="45.58685" lon="5.24666">
        <ele>254.866</ele>
        <time>2014-01-05T14:31:09Z</time>
      </trkpt>
      <trkpt lat="45.58682" lon="5.2468">
        <ele>255.373</ele>
        <time>2014-01-05T14:31:18Z</time>
      </trkpt>
      <trkpt lat="45.58681" lon="5.2468">
        <ele>255.328</ele>
        <time>2014-01-05T14:31:19Z</time>
      </trkpt>
      <trkpt lat="45.58681" lon="5.24697">
        <ele>255.053</ele>
        <time>2014-01-05T14:31:26Z</time>
      </trkpt>
      <trkpt lat="45.58669" lon="5.24704">
        <ele>254.732</ele>
        <time>2014-01-05T14:31:36Z</time>
      </trkpt>
    </trkseg>
  </trk>
</gpx>